createdAt,value
2019-01-30T00:00:37.298Z,7.97
2019-01-30T00:03:05.786Z,8.25
2019-01-30T00:05:34.533Z,8.38
2019-01-30T00:08:02.093Z,8.65
2019-01-30T00:10:29.533Z,7.37
2019-01-30T00:12:57.014Z,8.00
2019-01-30T00:15:24.481Z,7.40
2019-01-30T00:17:51.901Z,7.60
2019-01-30T00:20:19.304Z,7.35
2019-01-30T00:22:46.708Z,8.08
2019-01-30T00:25:14.512Z,6.95
2019-01-30T00:27:41.923Z,7.10
2019-01-30T00:30:10.886Z,7.60
2019-01-30T00:32:38.346Z,6.70
2019-01-30T00:35:07.401Z,7.00
2019-01-30T00:37:34.806Z,7.95
2019-01-30T00:40:02.232Z,8.30
2019-01-30T00:42:29.650Z,8.45
2019-01-30T00:44:57.056Z,8.88
2019-01-30T00:47:24.461Z,9.20
2019-01-30T00:49:51.906Z,7.67
2019-01-30T00:52:19.337Z,7.65
2019-01-30T00:54:46.741Z,7.22
2019-01-30T00:57:14.175Z,7.60
2019-01-30T00:59:41.574Z,8.03
2019-01-30T01:02:09.052Z,7.28
2019-01-30T01:04:36.566Z,7.85
2019-01-30T01:07:04.245Z,8.00
2019-01-30T01:09:31.743Z,7.62
2019-01-30T01:11:59.182Z,7.95
2019-01-30T01:14:26.595Z,6.83
2019-01-30T01:16:54.086Z,8.10
2019-01-30T01:19:21.513Z,7.20
2019-01-30T01:21:48.939Z,6.33
2019-01-30T01:24:16.335Z,6.12
2019-01-30T01:26:43.754Z,7.28
2019-01-30T01:29:11.160Z,6.25
2019-01-30T01:31:38.581Z,6.17
2019-01-30T01:34:05.991Z,6.87
2019-01-30T01:36:33.517Z,7.45
2019-01-30T01:39:00.919Z,7.15
2019-01-30T01:41:28.319Z,7.40
2019-01-30T01:43:55.743Z,7.37
2019-01-30T01:46:23.166Z,7.85
2019-01-30T01:48:50.565Z,7.40
2019-01-30T01:51:18.021Z,8.43
2019-01-30T01:53:45.418Z,8.95
2019-01-30T01:56:12.826Z,6.87
2019-01-30T01:58:40.249Z,7.70
2019-01-30T02:01:07.742Z,7.12
2019-01-30T02:03:35.148Z,8.83
2019-01-30T02:06:02.569Z,7.60
2019-01-30T02:08:29.960Z,6.62
2019-01-30T02:10:57.449Z,6.78
2019-01-30T02:13:24.946Z,7.97
2019-01-30T02:15:52.374Z,7.28
2019-01-30T02:18:19.787Z,7.83
2019-01-30T02:20:47.209Z,8.60
2019-01-30T02:23:14.644Z,8.08
2019-01-30T02:25:42.162Z,8.60
2019-01-30T02:28:09.595Z,8.13
2019-01-30T02:30:47.246Z,7.87
2019-01-30T02:33:06.086Z,8.68
2019-01-30T02:35:33.484Z,8.25
2019-01-30T02:38:00.891Z,8.45
2019-01-30T02:40:28.345Z,9.33
2019-01-30T02:42:55.750Z,9.65
2019-01-30T02:45:24.119Z,9.38
2019-01-30T02:47:51.546Z,10.05
2019-01-30T02:50:19.413Z,9.98
2019-01-30T02:52:46.915Z,10.18
2019-01-30T02:55:15.187Z,9.78
2019-01-30T02:57:42.661Z,9.10
2019-01-30T03:00:11.626Z,9.78
2019-01-30T03:02:39.057Z,9.03
2019-01-30T03:05:08.000Z,9.45
2019-01-30T03:07:35.406Z,9.15
2019-01-30T03:10:02.912Z,10.58
2019-01-30T03:12:30.333Z,11.95
2019-01-30T03:14:57.745Z,11.12
2019-01-30T03:17:25.153Z,9.93
2019-01-30T03:19:52.600Z,10.20
2019-01-30T03:22:20.025Z,11.40
2019-01-30T03:24:47.433Z,12.25
2019-01-30T03:27:14.918Z,11.00
2019-01-30T03:29:42.349Z,10.25
2019-01-30T03:32:09.779Z,12.23
2019-01-30T03:34:37.185Z,10.90
2019-01-30T03:37:04.613Z,11.85
2019-01-30T03:39:32.022Z,10.58
2019-01-30T03:41:59.571Z,10.23
2019-01-30T03:44:26.978Z,10.60
2019-01-30T03:46:54.415Z,11.55
2019-01-30T03:49:21.815Z,12.55
2019-01-30T03:51:49.251Z,12.90
2019-01-30T03:54:16.694Z,10.60
2019-01-30T03:56:44.103Z,12.58
2019-01-30T03:59:11.508Z,11.85
2019-01-30T04:01:38.946Z,11.00
2019-01-30T04:04:06.348Z,9.58
2019-01-30T04:06:33.780Z,11.33
2019-01-30T04:09:01.213Z,11.78
2019-01-30T04:11:28.613Z,11.40
2019-01-30T04:13:56.047Z,12.25
2019-01-30T04:16:23.454Z,10.68
2019-01-30T04:18:50.904Z,12.58
2019-01-30T04:21:18.318Z,12.25
2019-01-30T04:23:45.722Z,12.90
2019-01-30T04:26:13.149Z,11.55
2019-01-30T04:28:40.556Z,11.60
2019-01-30T04:31:07.992Z,12.98
2019-01-30T04:33:35.389Z,10.82
2019-01-30T04:36:02.822Z,10.30
2019-01-30T04:38:30.227Z,12.70
2019-01-30T04:40:57.646Z,12.95
2019-01-30T04:43:25.078Z,11.70
2019-01-30T04:45:52.481Z,10.88
2019-01-30T04:48:19.912Z,10.13
2019-01-30T04:50:47.395Z,12.85
2019-01-30T04:53:14.779Z,12.18
2019-01-30T04:55:42.177Z,11.30
2019-01-30T04:58:09.589Z,12.53
2019-01-30T05:00:37.013Z,12.13
2019-01-30T05:03:04.520Z,13.03
2019-01-30T05:05:31.929Z,11.38
2019-01-30T05:07:59.329Z,12.20
2019-01-30T05:10:29.466Z,11.80
2019-01-30T05:12:56.898Z,11.93
2019-01-30T05:15:24.314Z,12.85
2019-01-30T05:17:51.759Z,12.35
2019-01-30T05:20:20.051Z,11.43
2019-01-30T05:22:47.502Z,12.25
2019-01-30T05:25:15.185Z,12.20
2019-01-30T05:27:42.667Z,12.03
2019-01-30T05:30:11.654Z,12.33
2019-01-30T05:32:39.067Z,12.45
2019-01-30T05:35:06.750Z,12.82
2019-01-30T05:37:34.181Z,12.88
2019-01-30T05:40:02.286Z,11.65
2019-01-30T05:42:29.718Z,12.90
2019-01-30T05:44:57.135Z,12.40
2019-01-30T05:47:24.562Z,12.45
2019-01-30T05:49:51.971Z,13.10
2019-01-30T05:52:19.385Z,12.45
2019-01-30T05:54:47.179Z,12.93
2019-01-30T05:57:14.618Z,12.28
2019-01-30T05:59:42.046Z,14.40
2019-01-30T06:02:12.170Z,14.13
2019-01-30T06:04:38.538Z,14.13
2019-01-30T06:07:05.938Z,14.33
2019-01-30T06:09:33.370Z,14.50
2019-01-30T06:12:00.796Z,26.50
2019-01-30T06:14:28.203Z,22.02
2019-01-30T06:16:55.630Z,15.72
2019-01-30T06:19:23.043Z,18.82
2019-01-30T06:21:50.498Z,21.82
2019-01-30T06:24:17.911Z,14.07
2019-01-30T06:26:45.329Z,15.53
2019-01-30T06:29:12.743Z,15.00
2019-01-30T06:31:40.149Z,14.58
2019-01-30T06:34:07.593Z,16.85
2019-01-30T06:36:34.998Z,12.85
2019-01-30T06:39:02.444Z,16.50
2019-01-30T06:41:29.854Z,14.87
2019-01-30T06:43:57.266Z,16.95
2019-01-30T06:46:24.688Z,16.42
2019-01-30T06:48:52.097Z,15.53
2019-01-30T06:51:19.519Z,17.02
2019-01-30T06:53:46.924Z,17.98
2019-01-30T06:56:14.340Z,17.48
2019-01-30T06:58:41.759Z,18.32
2019-01-30T07:01:09.215Z,13.75
2019-01-30T07:03:36.631Z,15.40
2019-01-30T07:06:04.305Z,18.12
2019-01-30T07:08:31.755Z,17.98
2019-01-30T07:10:59.205Z,17.27
2019-01-30T07:13:26.621Z,18.32
2019-01-30T07:15:54.038Z,16.90
2019-01-30T07:18:21.481Z,18.57
2019-01-30T07:20:48.882Z,18.40
2019-01-30T07:23:16.360Z,17.20
2019-01-30T07:25:43.803Z,19.57
2019-01-30T07:28:11.218Z,18.52
2019-01-30T07:30:38.650Z,18.17
2019-01-30T07:33:06.132Z,19.00
2019-01-30T07:35:33.558Z,17.90
2019-01-30T07:38:00.961Z,20.10
2019-01-30T07:40:28.415Z,17.27
2019-01-30T07:42:55.820Z,18.42
2019-01-30T07:45:24.388Z,17.67
2019-01-30T07:47:51.845Z,17.75
2019-01-30T07:50:19.423Z,15.95
2019-01-30T07:52:46.899Z,17.55
2019-01-30T07:55:15.298Z,17.07
2019-01-30T07:57:42.698Z,17.85
2019-01-30T08:00:17.996Z,16.05
2019-01-30T08:02:52.959Z,16.00
2019-01-30T08:05:14.664Z,16.45
2019-01-30T08:07:42.140Z,17.77
2019-01-30T08:10:13.318Z,16.87
2019-01-30T08:12:40.823Z,16.25
2019-01-30T08:15:09.770Z,14.55
2019-01-30T08:17:37.222Z,17.37
2019-01-30T08:20:06.169Z,14.10
2019-01-30T08:22:33.609Z,14.05
2019-01-30T08:25:01.206Z,15.68
2019-01-30T08:27:28.991Z,15.55
2019-01-30T08:29:56.880Z,16.17
2019-01-30T08:32:24.613Z,15.15
2019-01-30T08:34:52.193Z,14.28
2019-01-30T08:37:19.603Z,15.78
2019-01-30T08:39:47.019Z,14.30
2019-01-30T08:42:14.529Z,13.40
2019-01-30T08:44:46.971Z,14.87
2019-01-30T08:47:11.003Z,15.13
2019-01-30T08:49:40.318Z,15.60
2019-01-30T08:52:07.489Z,14.15
2019-01-30T08:54:34.894Z,14.43
2019-01-30T08:57:02.337Z,14.53
2019-01-30T08:59:29.767Z,16.07
2019-01-30T09:01:57.557Z,13.65
2019-01-30T09:04:25.309Z,13.40
2019-01-30T09:06:52.744Z,14.83
2019-01-30T09:09:21.702Z,14.98
2019-01-30T09:11:49.256Z,12.68
2019-01-30T09:14:16.915Z,15.23
2019-01-30T09:16:44.446Z,14.53
2019-01-30T09:19:28.014Z,15.93
2019-01-30T09:21:56.036Z,16.02
2019-01-30T09:24:23.555Z,12.07
2019-01-30T09:26:50.994Z,14.15
2019-01-30T09:29:18.507Z,15.55
2019-01-30T09:32:07.415Z,15.98
2019-01-30T09:34:34.883Z,14.75
2019-01-30T09:37:02.361Z,15.40
2019-01-30T09:39:29.980Z,13.08
2019-01-30T09:41:57.495Z,12.70
2019-01-30T09:44:24.928Z,14.95
2019-01-30T09:46:52.390Z,12.93
2019-01-30T09:49:19.913Z,14.70
2019-01-30T09:51:47.354Z,14.30
2019-01-30T09:54:14.991Z,13.72
2019-01-30T09:57:02.149Z,13.85
2019-01-30T09:59:29.622Z,15.03
2019-01-30T10:01:57.181Z,15.63
2019-01-30T10:04:24.653Z,14.55
2019-01-30T10:06:52.117Z,13.78
2019-01-30T10:09:19.577Z,14.20
2019-01-30T10:11:47.015Z,13.15
2019-01-30T10:14:14.476Z,13.15
2019-01-30T10:16:42.294Z,13.38
2019-01-30T10:19:29.153Z,11.95
2019-01-30T10:21:56.628Z,13.25
2019-01-30T10:24:31.245Z,14.20
2019-01-30T10:26:58.734Z,12.33
2019-01-30T10:29:26.275Z,11.65
2019-01-30T10:31:53.768Z,13.25
2019-01-30T10:34:21.203Z,10.25
2019-01-30T10:36:48.718Z,11.80
2019-01-30T10:39:16.159Z,12.82
2019-01-30T10:42:02.896Z,12.70
2019-01-30T10:44:30.367Z,11.57
2019-01-30T10:46:57.877Z,11.97
2019-01-30T10:49:25.409Z,12.50
2019-01-30T10:51:52.888Z,11.97
2019-01-30T10:54:20.505Z,11.90
2019-01-30T10:56:47.942Z,12.23
2019-01-30T10:59:15.473Z,11.08
2019-01-30T11:02:02.438Z,10.85
2019-01-30T11:04:29.847Z,10.80
2019-01-30T11:06:57.452Z,10.05
2019-01-30T11:09:24.898Z,11.63
2019-01-30T11:11:54.675Z,12.25
2019-01-30T11:14:42.952Z,11.80
2019-01-30T11:17:10.509Z,12.05
2019-01-30T11:19:37.935Z,11.90
2019-01-30T11:22:37.377Z,11.03
2019-01-30T11:27:59.852Z,12.65
2019-01-30T11:36:31.333Z,11.12
2019-01-30T11:41:53.354Z,11.33
2019-01-30T11:44:21.250Z,9.83
2019-01-30T11:46:48.699Z,12.25
2019-01-30T11:51:50.951Z,10.18
2019-01-30T11:54:18.434Z,9.83
2019-01-30T11:56:45.842Z,11.60
2019-01-30T11:59:13.267Z,11.75
2019-01-30T12:01:40.705Z,12.30
2019-01-30T12:04:17.474Z,11.10
2019-01-30T12:06:37.384Z,10.48
2019-01-30T12:09:06.590Z,9.03
2019-01-30T12:11:34.104Z,9.45
2019-01-30T12:14:01.604Z,12.75
2019-01-30T12:16:28.989Z,11.12
2019-01-30T12:18:56.397Z,13.03
2019-01-30T12:21:23.827Z,12.20
2019-01-30T12:23:51.230Z,12.10
2019-01-30T12:26:18.667Z,12.35
2019-01-30T12:28:47.013Z,11.95
2019-01-30T12:31:16.844Z,12.05
2019-01-30T12:33:50.063Z,11.60
2019-01-30T12:36:18.450Z,11.28
2019-01-30T12:38:47.727Z,10.98
2019-01-30T12:41:16.783Z,12.45
2019-01-30T12:43:45.425Z,10.75
2019-01-30T12:46:13.758Z,11.50
2019-01-30T12:48:42.578Z,9.28
2019-01-30T12:51:11.329Z,11.30
2019-01-30T12:53:41.754Z,11.00
2019-01-30T12:56:09.546Z,12.45
2019-01-30T12:58:37.699Z,9.98
2019-01-30T13:01:07.195Z,10.63
2019-01-30T13:03:35.793Z,11.65
2019-01-30T13:06:05.628Z,11.80
2019-01-30T13:08:35.026Z,11.88
2019-01-30T13:11:03.607Z,9.68
2019-01-30T13:13:33.302Z,12.13
2019-01-30T13:16:03.209Z,10.30
2019-01-30T13:18:32.629Z,10.90
2019-01-30T13:21:02.295Z,9.25
2019-01-30T13:23:31.302Z,10.58
2019-01-30T13:25:59.792Z,10.60
2019-01-30T13:28:28.487Z,9.35
2019-01-30T13:30:56.581Z,12.45
2019-01-30T13:33:26.708Z,11.57
2019-01-30T13:35:56.520Z,11.70
2019-01-30T13:38:25.180Z,10.72
2019-01-30T13:40:54.931Z,12.33
2019-01-30T13:43:23.709Z,12.55
2019-01-30T13:45:52.148Z,10.45
2019-01-30T13:48:21.942Z,11.12
2019-01-30T13:50:50.498Z,11.12
2019-01-30T13:53:20.163Z,9.18
2019-01-30T13:55:50.131Z,11.03
2019-01-30T13:58:18.513Z,11.03
2019-01-30T14:00:46.317Z,11.05
2019-01-30T14:03:14.668Z,9.68
2019-01-30T14:05:43.179Z,12.30
2019-01-30T14:08:11.257Z,12.60
2019-01-30T14:10:39.676Z,11.93
2019-01-30T14:13:08.359Z,11.70
2019-01-30T14:15:36.856Z,11.30
2019-01-30T14:18:04.824Z,8.85
2019-01-30T14:20:33.400Z,11.57
2019-01-30T14:23:00.989Z,12.47
2019-01-30T14:25:30.755Z,10.98
2019-01-30T14:27:59.937Z,12.53
2019-01-30T14:30:29.898Z,12.25
2019-01-30T14:32:58.811Z,10.70
2019-01-30T14:35:30.914Z,9.88
2019-01-30T14:37:58.385Z,11.65
2019-01-30T14:40:27.077Z,10.63
2019-01-30T14:42:58.229Z,12.45
2019-01-30T14:48:14.608Z,10.45
2019-01-30T14:50:42.100Z,11.48
2019-01-30T14:53:11.782Z,11.25
2019-01-30T14:55:40.593Z,10.23
2019-01-30T14:58:08.905Z,11.08
2019-01-30T15:00:38.609Z,10.05
2019-01-30T15:03:07.555Z,11.00
2019-01-30T15:05:36.619Z,10.30
2019-01-30T15:08:05.242Z,11.38
2019-01-30T15:10:34.073Z,11.28
2019-01-30T15:13:02.962Z,10.82
2019-01-30T15:15:32.641Z,10.20
2019-01-30T15:18:01.622Z,11.38
2019-01-30T15:20:30.942Z,11.20
2019-01-30T15:23:01.351Z,11.73
2019-01-30T15:25:28.899Z,9.28
2019-01-30T15:27:56.681Z,11.05
2019-01-30T15:30:26.606Z,11.08
2019-01-30T15:32:55.635Z,11.70
2019-01-30T15:35:33.291Z,9.73
2019-01-30T15:37:54.559Z,10.50
2019-01-30T15:40:28.330Z,11.57
2019-01-30T15:42:56.109Z,12.82
2019-01-30T15:45:24.621Z,11.00
2019-01-30T15:47:53.621Z,12.10
2019-01-30T15:50:25.664Z,11.65
2019-01-30T15:52:53.538Z,10.48
2019-01-30T15:55:21.740Z,12.98
2019-01-30T15:57:50.418Z,10.50
2019-01-30T16:00:22.592Z,9.75
2019-01-30T16:02:50.018Z,11.10
2019-01-30T16:05:17.586Z,10.58
2019-01-30T16:07:45.069Z,11.25
2019-01-30T16:10:13.858Z,11.90
2019-01-30T16:12:41.866Z,12.30
2019-01-30T16:15:10.816Z,11.28
2019-01-30T16:17:38.247Z,11.55
2019-01-30T16:20:07.198Z,11.50
2019-01-30T16:22:34.715Z,11.10
2019-01-30T16:25:08.650Z,9.65
2019-01-30T16:27:31.230Z,12.30
2019-01-30T16:29:58.634Z,10.58
2019-01-30T16:32:26.049Z,11.03
2019-01-30T16:34:53.496Z,11.38
2019-01-30T16:37:20.908Z,11.03
2019-01-30T16:39:48.361Z,10.75
2019-01-30T16:42:15.787Z,11.85
2019-01-30T16:44:43.229Z,12.13
2019-01-30T16:47:10.690Z,10.70
2019-01-30T16:49:38.115Z,11.30
2019-01-30T16:52:08.130Z,10.80
2019-01-30T16:54:35.588Z,11.22
2019-01-30T16:57:03.021Z,12.20
2019-01-30T16:59:30.485Z,10.13
2019-01-30T17:01:57.929Z,11.03
2019-01-30T17:04:25.389Z,11.60
2019-01-30T17:06:52.809Z,12.35
2019-01-30T17:09:20.258Z,10.20
2019-01-30T17:11:47.719Z,11.95
2019-01-30T17:14:15.195Z,12.63
2019-01-30T17:16:42.623Z,12.45
2019-01-30T17:19:10.129Z,11.45
2019-01-30T17:21:37.527Z,10.95
2019-01-30T17:24:05.158Z,11.80
2019-01-30T17:26:32.562Z,10.63
2019-01-30T17:28:59.971Z,12.82
2019-01-30T17:31:27.418Z,13.43
2019-01-30T17:33:54.852Z,11.45
2019-01-30T17:36:22.334Z,12.25
2019-01-30T17:38:49.781Z,12.03
2019-01-30T17:41:17.197Z,11.88
2019-01-30T17:43:44.601Z,12.53
2019-01-30T17:46:12.027Z,12.45
2019-01-30T17:48:39.434Z,12.50
2019-01-30T17:51:06.975Z,12.10
2019-01-30T17:53:34.378Z,11.30
2019-01-30T17:56:01.835Z,10.48
2019-01-30T17:58:29.235Z,13.35
2019-01-30T18:00:58.309Z,12.33
2019-01-30T18:03:26.462Z,12.70
2019-01-30T18:05:53.994Z,13.05
2019-01-30T18:08:21.578Z,12.07
2019-01-30T18:10:53.934Z,10.40
2019-01-30T18:13:21.403Z,11.63
2019-01-30T18:15:50.453Z,12.13
2019-01-30T18:18:17.867Z,11.95
2019-01-30T18:20:45.296Z,12.33
2019-01-30T18:23:12.961Z,12.23
2019-01-30T18:25:40.752Z,13.35
2019-01-30T18:28:08.222Z,13.32
2019-01-30T18:30:36.025Z,12.90
2019-01-30T18:33:04.096Z,11.85
2019-01-30T18:35:32.483Z,12.80
2019-01-30T18:37:59.949Z,9.70
2019-01-30T18:40:28.589Z,13.28
2019-01-30T18:42:57.200Z,12.95
2019-01-30T18:45:28.639Z,14.10
2019-01-30T18:47:56.330Z,12.47
2019-01-30T18:50:25.773Z,15.35
2019-01-30T18:52:54.379Z,13.05
2019-01-30T18:55:22.943Z,14.28
2019-01-30T18:57:50.512Z,14.55
2019-01-30T19:00:28.121Z,15.28
2019-01-30T19:02:56.429Z,14.03
2019-01-30T19:05:23.922Z,15.03
2019-01-30T19:07:51.384Z,14.78
2019-01-30T19:10:18.853Z,15.05
2019-01-30T19:12:46.672Z,15.00
2019-01-30T19:15:18.581Z,15.10
2019-01-30T19:17:46.593Z,14.40
2019-01-30T19:20:15.910Z,12.85
2019-01-30T19:22:43.349Z,10.88
2019-01-30T19:25:10.766Z,13.50
2019-01-30T19:27:38.243Z,12.18
2019-01-30T19:30:07.195Z,13.80
2019-01-30T19:32:34.628Z,12.37
2019-01-30T19:35:02.078Z,14.13
2019-01-30T19:37:29.500Z,12.58
2019-01-30T19:39:57.174Z,12.55
2019-01-30T19:42:24.630Z,11.48
2019-01-30T19:44:52.081Z,13.43
2019-01-30T19:47:19.500Z,11.12
2019-01-30T19:49:46.971Z,13.05
2019-01-30T19:52:14.352Z,12.55
2019-01-30T19:54:41.775Z,14.80
2019-01-30T19:57:09.207Z,12.82
2019-01-30T19:59:36.795Z,11.75
2019-01-30T20:02:04.585Z,14.10
2019-01-30T20:04:31.984Z,13.83
2019-01-30T20:06:59.421Z,13.53
2019-01-30T20:09:26.894Z,11.68
2019-01-30T20:11:54.343Z,13.70
2019-01-30T20:14:21.777Z,13.55
2019-01-30T20:16:49.223Z,14.05
2019-01-30T20:19:16.626Z,12.85
2019-01-30T20:21:44.057Z,13.28
2019-01-30T20:24:11.502Z,15.48
2019-01-30T20:26:38.908Z,13.00
2019-01-30T20:29:06.365Z,13.90
2019-01-30T20:31:33.774Z,14.73
2019-01-30T20:34:09.997Z,14.43
2019-01-30T20:36:30.378Z,15.13
2019-01-30T20:38:57.915Z,14.00
2019-01-30T20:41:25.366Z,13.72
2019-01-30T20:43:52.788Z,16.62
2019-01-30T20:46:20.216Z,15.58
2019-01-30T20:48:51.607Z,13.95
2019-01-30T20:51:16.710Z,13.72
2019-01-30T20:53:44.152Z,14.25
2019-01-30T20:56:11.605Z,16.12
2019-01-30T20:58:39.014Z,15.43
2019-01-30T21:01:06.496Z,15.40
2019-01-30T21:03:33.967Z,14.75
2019-01-30T21:06:01.442Z,15.45
2019-01-30T21:08:28.836Z,15.60
2019-01-30T21:10:56.298Z,15.63
2019-01-30T21:13:23.700Z,14.53
2019-01-30T21:15:51.116Z,15.53
2019-01-30T21:18:18.681Z,15.28
2019-01-30T21:20:46.087Z,14.90
2019-01-30T21:23:13.514Z,15.25
2019-01-30T21:25:40.933Z,16.15
2019-01-30T21:28:08.346Z,15.30
2019-01-30T21:30:36.870Z,14.93
2019-01-30T21:33:04.654Z,14.40
2019-01-30T21:35:32.073Z,15.50
2019-01-30T21:37:59.597Z,15.23
2019-01-30T21:40:27.016Z,15.78
2019-01-30T21:42:54.494Z,16.37
2019-01-30T21:45:23.513Z,15.90
2019-01-30T21:47:51.014Z,16.17
2019-01-30T21:50:18.717Z,16.17
2019-01-30T21:52:46.172Z,16.82
2019-01-30T21:55:17.428Z,15.70
2019-01-30T21:57:44.910Z,16.10
2019-01-30T22:00:16.923Z,17.45
2019-01-30T22:02:44.290Z,18.15
2019-01-30T22:05:11.731Z,17.50
2019-01-30T22:07:39.142Z,16.52
2019-01-30T22:10:09.795Z,18.17
2019-01-30T22:12:37.239Z,17.75
2019-01-30T22:15:06.182Z,17.07
2019-01-30T22:17:33.604Z,18.32
2019-01-30T22:20:01.017Z,15.83
2019-01-30T22:22:29.392Z,16.87
2019-01-30T22:24:57.180Z,17.35
2019-01-30T22:27:24.581Z,16.12
2019-01-30T22:29:52.033Z,17.23
2019-01-30T22:32:19.439Z,18.90
2019-01-30T22:34:46.850Z,18.42
2019-01-30T22:37:14.275Z,15.78
2019-01-30T22:39:41.689Z,16.32
2019-01-30T22:42:09.102Z,16.40
2019-01-30T22:44:36.850Z,16.15
2019-01-30T22:47:04.329Z,17.70
2019-01-30T22:49:31.735Z,16.82
2019-01-30T22:51:59.731Z,24.63
2019-01-30T22:54:27.145Z,18.27
2019-01-30T22:56:54.569Z,25.52
2019-01-30T22:59:22.011Z,18.70
2019-01-30T23:01:49.601Z,17.80
2019-01-30T23:04:18.551Z,18.02
2019-01-30T23:06:47.513Z,16.65
2019-01-30T23:09:19.225Z,16.20
2019-01-30T23:11:48.249Z,18.95
2019-01-30T23:14:15.648Z,19.07
2019-01-30T23:16:50.873Z,15.80
2019-01-30T23:19:19.831Z,17.80
2019-01-30T23:21:51.712Z,18.35
2019-01-30T23:24:26.524Z,17.77
2019-01-30T23:26:55.519Z,18.55
2019-01-30T23:29:30.195Z,16.50
2019-01-30T23:31:59.190Z,16.97
2019-01-30T23:34:34.099Z,16.85
2019-01-30T23:37:09.246Z,15.53
2019-01-30T23:39:53.429Z,16.52
2019-01-30T23:42:34.481Z,14.65
2019-01-30T23:45:09.384Z,14.23
2019-01-30T23:47:38.358Z,15.75
2019-01-30T23:50:13.443Z,15.13
2019-01-30T23:52:48.573Z,15.58
2019-01-30T23:55:20.302Z,13.32
2019-01-30T23:57:49.246Z,14.78
